DRI Storm Peak Lab. Weather observations

Data are for 5 minute period ending at time listed.
 Day   Time    Ave.   Ave.  Ave.  Vector  Max.   Total    Baro.    Solar      Aerosol      Ave.  Ultrafine   Snow  
  of    of     Air    Rel.  Wind   Wind   Wind  Precip.   Pres.  Radiation   Aerosol      Ozone   Aerosol    Depth 
Year   Day     Temp.  Hum.  Speed  Dir.   Gust                               Ave.   Max.            Ave.           
2014   (MST)    F      %     mph   deg.    mph    in.      mb.     w/m2         #/cm3      ppbv    #/cm3      in.  
-------------------------------------------------------------------------------------------------------------------
 107   14:05   33.2    42    8.5   226    12.2   999.00    689.3      0.0    -1417       0   999.0        0     0.0
 107   14:10   32.8    42   10.7   235    14.8   999.00    689.3      0.0    -1417       0   999.0        0     0.0
 107   14:15   32.9    43    8.9   232    14.3   999.00    689.3      0.0    -1417       0   999.0        0     0.0
 107   14:20   33.1    42   11.6   197    18.7   999.00    689.2      0.0    -1416       0   999.0        0     0.0
 107   14:25   32.9    42   10.1   215    18.4   999.00    689.2      0.0    -1416       0   999.0        0     0.0
 107   14:30   33.0    41    9.8   221    16.3   999.00    689.2      0.0    -1415       0   999.0        0     0.0
 107   14:35   33.2    43   11.0   229    18.9   999.00    689.2      0.0    -1414       0   999.0        0     0.0
 107   14:40   33.5    43    9.5   226    13.5   999.00    689.3      0.0    -1414       0   999.0        0     0.0
 107   14:45   33.7    42    9.3   228    15.4   999.00    689.2      0.0    -1414       0   999.0        0     0.0
 107   14:50   33.6    42    8.3   224    11.8   999.00    689.2      0.0    -1414       0   999.0        0     0.0
 107   14:55   33.6    43    9.3   225    15.2   999.00    689.1      0.0    -1413       0   999.0        0     0.0
 107   15:00   33.8    42    6.1   226    10.9   999.00    689.1      0.0    -1413       0   999.0        0     0.0
 107   15:05   34.3    41   11.2   226    15.4   999.00    689.1      0.0    -1412       0   999.0        0     0.0
 107   15:10   33.9    42   12.7   233    17.4   999.00    689.1      0.0    -1412       0   999.0        0     0.0
 107   15:15   34.4    41    6.0   228    10.9   999.00    689.1      0.0    -1412       0   999.0        0     0.0
 107   15:20   34.5    42    7.6   229    12.6   999.00    689.1      0.0    -1411       0   999.0        0     0.0
 107   15:25   34.7    42    8.6   235    14.1   999.00    689.1      0.0    -1411       0   999.0        0     0.0
 107   15:30   34.6    41    8.7   254    13.5   999.00    689.1      0.0    -1411       0   999.0        0     0.0
 107   15:35   34.7    41   11.4   242    13.9   999.00    689.1      0.0    -1411       0   999.0        0     0.0
 107   15:40   34.8    41    9.3   223    16.9   999.00    689.1      0.0    -1410       0   999.0        0     0.0
 107   15:45   35.1    41    6.2   226    12.6   999.00    689.1      0.0    -1410       0   999.0        0     0.0
 107   15:50   34.9    41    8.4   218    13.7   999.00    689.2      0.0    -1410       0   999.0        0     0.0
 107   15:55   34.8    42    6.4   231    13.7   999.00    689.1      0.0    -1410       0   999.0        0     0.0
 107   16:00   34.7    41    6.8   210    12.8   999.00    689.1      0.0    -1410       0   999.0        0     0.0
 107   16:05   34.7    41    7.7   218    14.3   999.00    689.1      0.0    -1409       0   999.0        0     0.0
 107   16:10   34.6    42    6.6   219    10.4   999.00    689.1      0.0    -1409       0   999.0        0     0.0
 107   16:15   35.0    41    6.6   209    14.8   999.00    689.1      0.0    -1409       0   999.0        0     0.0
 107   16:20   35.0    42    4.8   211     7.6   999.00    689.1      0.0    -1409       0   999.0        0     0.0
 107   16:25   34.8    43    5.2   227     8.9   999.00    689.1      0.0    -1409       0   999.0        0     0.0
 107   16:30   34.8    43    5.4   214    11.7   999.00    689.1      0.0    -1408       0   999.0        0     0.0
 107   16:35   34.9    43    7.4   217    12.2   999.00    689.1      0.0    -1408       0   999.0        0     0.0
 107   16:40   34.7    43    4.6   214     7.4   999.00    689.1      0.0    -1408       0   999.0        0     0.0
 107   16:45   34.9    42    5.8   215     8.1   999.00    689.1      0.0    -1408       0   999.0        0     0.0
 107   16:50   35.1    42    7.3   218    10.4   999.00    689.1      0.0    -1408       0   999.0        0     0.0
 107   16:55   35.7    42    6.8   226    10.0   999.00    689.1      0.0    -1408       0   999.0        0     0.0
 107   17:00   36.3    41    8.5   239    12.4   999.00    689.1      0.0    -1408       0   999.0        0     0.0
 107   17:05   36.5    41    8.0   226    11.7   999.00    689.1      0.0    -1408       0   999.0        0     0.0
 107   17:10   36.3    42    7.0   215    10.6   999.00    689.1      0.0    -1408       0   999.0        0     0.0
 107   17:15   36.4    42    8.2   224    14.6   999.00    689.1      0.0    -1408       0   999.0        0     0.0
 107   17:20   36.2    42    7.5   221    13.5   999.00    689.1      0.0    -1407       0   999.0        0     0.0
 107   17:25   36.2    43    7.0   223    11.1   999.00    689.0      0.0    -1407       0   999.0        0     0.0
 107   17:30   35.9    44    9.7   218    15.0   999.00    689.0      0.0    -1407       0   999.0        0     0.0
 107   17:35   35.9    44   12.4   227    18.0   999.00    689.0      0.0    -1407       0   999.0        0     0.0
 107   17:40   36.0    44   11.1   228    14.8   999.00    688.9      0.0    -1406       0   999.0        0     0.0
 107   17:45   35.7    45   13.1   230    17.8   999.00    688.9      0.0    -1406       0   999.0        0     0.0
 107   17:50   36.1    45   11.9   236    16.1   999.00    689.0      0.0    -1407       0   999.0        0     0.0
 107   17:55   36.6    44   12.0   227    17.2   999.00    689.0      0.0    -1407       0   999.0        0     0.0
 107   18:00   36.7    44   13.2   236    19.1   999.00    689.0      0.0    -1407       0   999.0        0     0.0
 107   18:05   36.5    45   10.1   229    14.1   999.00    689.0      0.0    -1407       0   999.0        0     0.0
 107   18:10   36.2    46   13.0   224    17.4   999.00    689.0      0.0    -1406       0   999.0        0     0.0
 107   18:15   35.9    46   11.4   223    14.6   999.00    689.0      0.0    -1406       0   999.0        0     0.0
 107   18:20   35.8    46   11.6   222    16.1   999.00    689.1      0.0    -1406       0   999.0        0     0.0
 107   18:25   35.6    47   10.5   218    14.3   999.00    689.1      0.0    -1406       0   999.0        0     0.0
 107   18:30   35.6    47   10.4   221    14.4   999.00    689.1      0.0    -1406       0   999.0        0     0.0
 107   18:35   35.6    47   12.8   225    18.2   999.00    689.0      0.0    -1406       0   999.0        0     0.0
 107   18:40   35.2    48   12.7   234    15.8   999.00    689.0      0.0    -1406       0   999.0        0     0.0
 107   18:45   35.1    48   14.3   231    17.6   999.00    689.0      0.0    -1406       0   999.0        0     0.0
 107   18:50   35.0    48   15.6   231    20.8   999.00    689.1      0.0    -1407       0   999.0        0     0.0
 107   18:55   34.9    48   17.0   230    20.8   999.00    689.1      0.0    -1407       0   999.0        0     0.0
 107   19:00   34.7    48   16.1   229    19.3   999.00    689.1      0.0    -1407       0   999.0        0     0.0
 107   19:05   34.5    49   16.0   228    19.5   999.00    689.2      0.0    -1407       0   999.0        0     0.0
 107   19:10   34.5    48   16.2   232    19.7   999.00    689.2      0.0    -1408       0   999.0        0     0.0
 107   19:15   34.5    48   15.4   238    19.5   999.00    689.2      0.0    -1408       0   999.0        0     0.0
 107   19:20   34.6    48   15.8   235    18.2   999.00    689.1      0.0    -1408       0   999.0        0     0.0
 107   19:25   34.5    47   15.8   232    20.4   999.00    689.1      0.0    -1408       0   999.0        0     0.0
 107   19:30   34.4    47   16.4   232    19.7   999.00    689.1      0.0    -1408       0   999.0        0     0.0
 107   19:35   34.6    46   16.8   237    19.7   999.00    689.2      0.0    -1409       0   999.0        0     0.0
 107   19:40   34.6    46   16.0   236    19.1   999.00    689.2      0.0    -1409       0   999.0        0     0.0
 107   19:45   34.3    47   14.6   246    18.7   999.00    689.3      0.0    -1409       0   999.0        0     0.0
 107   19:50   34.1    48   13.0   232    15.6   999.00    689.4      0.0    -1410       0   999.0        0     0.0
 107   19:55   33.7    50   10.7   235    13.5   999.00    689.5      0.0    -1410       0   999.0        0     0.0
 107   20:00   33.6    49   10.3   235    12.2   999.00    689.5      0.0    -1411       0   999.0        0     0.0
 107   20:05   33.8    49    8.7   239    12.8   999.00    689.6      0.0    -1411       0   999.0        0     0.0
 107   20:10   33.6    50    9.7   252    12.0   999.00    689.6      0.0    -1412       0   999.0        0     0.0
 107   20:15   33.4    50    7.9   265    10.9   999.00    689.6      0.0    -1412       0   999.0        0     0.0
 107   20:20   33.2    50    7.7   265    10.4   999.00    689.7      0.0    -1412       0   999.0        0     0.0
 107   20:25   33.2    50    7.8   264    11.7   999.00    689.7      0.0    -1412       0   999.0        0     0.0
 107   20:30   33.2    49    8.1   265    12.2   999.00    689.7      0.0    -1413       0   999.0        0     0.0
 107   20:35   33.4    48    8.3   263    10.6   999.00    689.7      0.0    -1413       0   999.0        0     0.0
 107   20:40   33.3    47   10.2   263    13.2   999.00    689.7      0.0    -1413       0   999.0        0     0.0
 107   20:45   33.3    47   10.5   260    14.1   999.00    689.8      0.0    -1414       0   999.0        0     0.0
 107   20:50   33.3    46   10.3   262    12.6   999.00    689.8      0.0    -1414       0   999.0        0     0.0
 107   20:55   33.2    46   10.0   261    12.2   999.00    689.8      0.0    -1414       0   999.0        0     0.0
 107   21:00   33.1    47   10.2   249    11.8   999.00    689.8      0.0    -1414       0   999.0        0     0.0
 107   21:05   33.0    48    9.6   247    11.8   999.00    689.9      0.0    -1415       0   999.0        0     0.0
 107   21:10   32.9    48   10.3   243    12.0   999.00    689.9      0.0    -1416       0   999.0        0     0.0
 107   21:15   32.7    48    9.4   239    12.0   999.00    689.9      0.0    -1416       0   999.0        0     0.0
 107   21:20   32.6    49    9.7   238    12.2   999.00    689.9      0.0    -1415       0   999.0        0     0.0
 107   21:25   32.9    48    8.9   223    13.3   999.00    689.9      0.0    -1416       0   999.0        0     0.0
 107   21:30   33.6    46    8.1   215    12.4   999.00    689.8      0.0    -1416       0   999.0        0     0.0
 107   21:35   33.6    45    8.9   215    12.8   999.00    689.9      0.0    -1417       0   999.0        0     0.0
 107   21:40   33.8    44    9.2   218    14.1   999.00    689.9      0.0    -1417       0   999.0        0     0.0
 107   21:45   33.7    45    8.6   221    11.7   999.00    689.9      0.0    -1417       0   999.0        0     0.0
 107   21:50   33.5    45    9.2   218    18.9   999.00    689.9      0.0    -1418       0   999.0        0     0.0
 107   21:55   33.4    46    8.9   215    14.1   999.00    689.9      0.0    -1418       0   999.0        0     0.0
 107   22:00   33.4    46    8.2   211    14.4   999.00    689.9      0.0    -1418       0   999.0        0     0.0
 107   22:05   33.3    46    9.3   213    15.2   999.00    689.9      0.0    -1418       0   999.0        0     0.0
 107   22:10   33.2    47    8.3   205    12.2   999.00    689.9      0.0    -1419       0   999.0        0     0.0
 107   22:15   33.3    46   10.9   203    21.7   999.00    689.9      0.0    -1419       0   999.0        0     0.0
 107   22:20   33.1    46    9.8   210    15.2   999.00    689.9      0.0    -1419       0   999.0        0     0.0
 107   22:25   33.4    45    9.9   211    14.6   999.00    689.9      0.0    -1419       0   999.0        0     0.0
 107   22:30   33.5    45   11.2   208    17.2   999.00    689.9      0.0    -1419       0   999.0        0     0.0
 107   22:35   33.5    45    9.9   214    14.3   999.00    689.9      0.0    -1419       0   999.0        0     0.0
 107   22:40   33.3    45    9.8   212    16.5   999.00    689.9      0.0    -1419       0   999.0        0     0.0
 107   22:45   33.3    45    8.9   212    12.8   999.00    690.0      0.0    -1420       0   999.0        0     0.0
 107   22:50   33.3    45    9.6   212    16.7   999.00    689.9      0.0    -1420       0   999.0        0     0.0
 107   22:55   33.3    45    9.8   215    14.3   999.00    689.9      0.0    -1420       0   999.0        0     0.0
 107   23:00   33.3    45    7.4   210    11.5   999.00    689.9      0.0    -1420       0   999.0        0     0.0
 107   23:05   33.2    45    7.2   209    10.9   999.00    689.9      0.0    -1420       0   999.0        0     0.0
 107   23:10   33.2    45    7.7   207    10.7   999.00    689.9      0.0    -1421       0   999.0        0     0.0
 107   23:15   33.3    45    8.0   206    11.8   999.00    689.9      0.0    -1421       0   999.0        0     0.0
 107   23:20   33.1    46    7.5   210    10.7   999.00    690.0      0.0    -1421       0   999.0        0     0.0
 107   23:25   33.3    46    7.8   208    11.1   999.00    690.0      0.0    -1421       0   999.0        0     0.0
 107   23:30   33.3    46    7.4   206    10.0   999.00    690.0      0.0    -1421       0   999.0        0     0.0
 107   23:35   33.2    47    8.3   209    12.8   999.00    690.0      0.0    -1421       0   999.0        0     0.0
 107   23:40   33.0    47    7.4   208     9.8   999.00    690.0      0.0    -1421       0   999.0        0     0.0
 107   23:45   32.9    48    7.3   209     8.9   999.00    690.1      0.0    -1422       0   999.0        0     0.0
 107   23:50   32.9    48    7.8   210    10.9   999.00    690.1      0.0    -1422       0   999.0        0     0.0
 107   23:55   32.7    48    7.6   209    11.7   999.00    690.1      0.0    -1422       0   999.0        0     0.0
 108    0:00   32.7    49    8.3   207    12.4   999.00    690.1      0.0    -1422       0   999.0        0     0.0
 108    0:05   32.8    48    7.8   205    11.3   999.00    690.1      0.0    -1422       0   999.0        0     0.0
 108    0:10   32.6    49    8.0   203    13.3   999.00    690.1      0.0    -1423       0   999.0        0     0.0
 108    0:15   32.6    49    7.6   208    12.4   999.00    690.1      0.0    -1423       0   999.0        0     0.0
 108    0:20   32.5    50    8.6   210    12.6   999.00    690.1      0.0    -1423       0   999.0        0     0.0
 108    0:25   32.8    49    8.8   212    12.0   999.00    690.1      0.0    -1423       0   999.0        0     0.0
 108    0:30   32.7    49    7.2   208    11.7   999.00    690.1      0.0    -1423       0   999.0        0     0.0
 108    0:35   32.6    49    6.4   206     8.5   999.00    690.1      0.0    -1423       0   999.0        0     0.0
 108    0:40   32.5    50    7.2   210     9.4   999.00    690.1      0.0    -1423       0   999.0        0     0.0
 108    0:45   32.7    49    9.0   212    12.4   999.00    690.1      0.0    -1423       0   999.0        0     0.0
 108    0:50   32.8    49    9.8   209    13.9   999.00    690.1      0.0    -1423       0   999.0        0     0.0
 108    0:55   32.7    49   10.1   208    14.1   999.00    690.0      0.0    -1423       0   999.0        0     0.0
 108    1:00   32.6    49   11.0   213    14.8   999.00    690.1      0.0    -1424       0   999.0        0     0.0
 108    1:05   32.5    50   10.2   212    14.8   999.00    690.1      0.0    -1424       0   999.0        0     0.0
 108    1:10   32.4    50   11.0   215    15.2   999.00    690.0      0.0    -1424       0   999.0        0     0.0
 108    1:15   32.4    50   11.3   216    17.2   999.00    690.0      0.0    -1424       0   999.0        0     0.0
 108    1:20   32.4    50   11.8   215    16.3   999.00    690.0      0.0    -1424       0   999.0        0     0.0
 108    1:25   32.3    50   12.4   216    16.7   999.00    690.0      0.0    -1424       0   999.0        0     0.0
 108    1:30   32.5    49   12.9   216    18.0   999.00    690.0      0.0    -1424       0   999.0        0     0.0
 108    1:35   32.7    49   11.9   219    15.9   999.00    689.9      0.0    -1424       0   999.0        0     0.0
 108    1:40   32.9    49   10.9   218    15.4   999.00    689.8      0.0    -1424       0   999.0        0     0.0
 108    1:45   33.1    48   11.3   211    15.8   999.00    689.8      0.0    -1424       0   999.0        0     0.0
 108    1:50   32.9    49   10.6   211    16.3   999.00    689.8      0.0    -1424       0   999.0        0     0.0
 108    1:55   32.8    49    7.7   208    12.6   999.00    689.8      0.0    -1424       0   999.0        0     0.0
 108    2:00   32.6    49    6.5   209     9.2   999.00    689.8      0.0    -1424       0   999.0        0     0.0
 108    2:05   32.4    50    9.7   203    14.3   999.00    689.8      0.0    -1424       0   999.0        0     0.0
 108    2:10   32.6    50    9.4   206    15.6   999.00    689.7      0.0    -1424       0   999.0        0     0.0
 108    2:15   32.9    50   11.3   205    17.8   999.00    689.7      0.0    -1424       0   999.0        0     0.0
 108    2:20   33.0    50   12.3   203    20.0   999.00    689.9      0.0    -1425       0   999.0        0     0.0
 108    2:25   32.9    50   12.5   201    19.3   999.00    689.9      0.0    -1425       0   999.0        0     0.0
 108    2:30   32.9    50   10.4   203    15.9   999.00    689.9      0.0    -1425       0   999.0        0     0.0
 108    2:35   33.1    50    8.7   208    13.2   999.00    689.8      0.0    -1425       0   999.0        0     0.0
 108    2:40   33.0    50    9.3   208    12.4   999.00    689.8      0.0    -1425       0   999.0        0     0.0
 108    2:45   33.1    50    9.2   209    14.6   999.00    689.8      0.0    -1425       0   999.0        0     0.0
 108    2:50   33.3    50    9.9   210    14.6   999.00    689.8      0.0    -1425       0   999.0        0     0.0
 108    2:55   33.7    50   12.6   212    18.7   999.00    689.9      0.0    -1425       0   999.0        0     0.0
 108    3:00   33.7    50   10.5   209    14.1   999.00    689.9      0.0    -1425       0   999.0        0     0.0
 108    3:05   33.7    50    9.5   208    13.2   999.00    689.8      0.0    -1425       0   999.0        0     0.0
 108    3:10   33.7    50   10.7   212    14.4   999.00    689.7      0.0    -1425       0   999.0        0     0.0
 108    3:15   33.9    50   11.6   214    18.5   999.00    689.8      0.0    -1425       0   999.0        0     0.0
 108    3:20   34.0    50   10.5   209    15.8   999.00    689.8      0.0    -1425       0   999.0        0     0.0
 108    3:25   33.9    51    8.7   212    11.8   999.00    689.9      0.0    -1425       0   999.0        0     0.0
 108    3:30   33.9    51    8.3   208    15.2   999.00    689.9      0.0    -1426       0   999.0        0     0.0
 108    3:35   34.0    51    8.8   203    15.6   999.00    689.9      0.0    -1426       0   999.0        0     0.0
 108    3:40   33.9    51    8.3   205    12.4   999.00    689.9      0.0    -1426       0   999.0        0     0.0
 108    3:45   34.1    50    8.7   204    17.6   999.00    689.9      0.0    -1426       0   999.0        0     0.0
 108    3:50   34.1    51    9.8   202    15.8   999.00    689.9      0.0    -1426       0   999.0        0     0.0
 108    3:55   34.4    50   11.9   194    18.0   999.00    689.9      0.0    -1426       0   999.0        0     0.0
 108    4:00   34.4    50   13.7   191    18.2   999.00    689.9      0.0    -1426       0   999.0        0     0.0
 108    4:05   34.5    50   11.6   194    15.0   999.00    690.0      0.0    -1426       0   999.0        0     0.0
 108    4:10   34.4    50   11.9   188    15.6   999.00    690.0      0.0    -1426       0   999.0        0     0.0
 108    4:15   34.5    50   12.1   194    16.5   999.00    690.0      0.0    -1426       0   999.0        0     0.0
 108    4:20   34.8    50   13.3   189    17.1   999.00    690.0      0.0    -1426       0   999.0        0     0.0
 108    4:25   34.7    50   13.2   190    18.9   999.00    690.0      0.0    -1426       0   999.0        0     0.0
 108    4:30   34.8    50   12.3   185    16.7   999.00    690.0      0.0    -1426       0   999.0        0     0.0
 108    4:35   34.5    50   12.0   181    16.1   999.00    690.0      0.0    -1427       0   999.0        0     0.0
 108    4:40   34.0    50   13.0   168    15.8   999.00    689.9      0.0    -1427       0   999.0        0     0.0
 108    4:45   33.8    51   13.2   171    16.9   999.00    689.9      0.0    -1426       0   999.0        0     0.0
 108    4:50   33.9    51   11.9   175    13.9   999.00    690.0      0.0    -1427       0   999.0        0     0.0
 108    4:55   33.4    52   11.5   164    14.3   999.00    690.0      0.0    -1427       0   999.0        0     0.0
 108    5:00   32.5    53   11.7   155    14.3   999.00    690.0      0.0    -1427       0   999.0        0     0.0
 108    5:05   32.3    54   11.6   157    13.2   999.00    689.9      0.0    -1427       0   999.0        0     0.0
 108    5:10   32.3    54   12.1   156    14.1   999.00    689.9      0.0    -1427       0   999.0        0     0.0
 108    5:15   32.7    53   12.0   161    14.3   999.00    689.9      0.0    -1426       0   999.0        0     0.0
 108    5:20   32.0    55   11.9   143    14.4   999.00    689.9      0.0    -1426       0   999.0        0     0.0
 108    5:25   31.4    56   12.6   142    14.3   999.00    690.0      0.0    -1427       0   999.0        0     0.0
 108    5:30   31.5    56   13.0   151    15.8   999.00    690.0      0.0    -1426       0   999.0        0     0.0
 108    5:35   31.8    56   13.0   150    14.3   999.00    690.0      0.0    -1427       0   999.0        0     0.0
 108    5:40   31.6    56   13.2   147    14.4   999.00    690.0      0.0    -1427       0   999.0        0     0.0
 108    5:45   31.9    56   12.8   157    14.4   999.00    690.1      0.0    -1427       0   999.0        0     0.0
 108    5:50   32.1    56   13.0   153    15.6   999.00    690.1      0.0    -1426       0   999.0        0     0.0
 108    5:55   32.4    56   13.8   146    16.7   999.00    690.1      0.0    -1426       0   999.0        0     0.0
 108    6:00   32.8    55   14.8   152    18.2   999.00    690.1      0.0    -1426       0   999.0        0     0.0
 108    6:05   33.2    54   14.3   146    17.2   999.00    690.1      0.0    -1426       0   999.0        0     0.0
 108    6:10   32.5    55   13.7   140    16.5   999.00    690.2      0.0    -1426       0   999.0        0     0.0
 108    6:15   32.1    56   13.6   144    16.1   999.00    690.2      0.0    -1426       0   999.0        0     0.0
 108    6:20   32.0    56   11.4   158    14.3   999.00    690.2      0.0    -1426       0   999.0        0     0.0
 108    6:25   33.0    55   11.7   164    16.7   999.00    690.3      0.0    -1426       0   999.0        0     0.0
 108    6:30   33.8    54   12.1   162    15.9   999.00    690.3      0.0    -1426       0   999.0        0     0.0
 108    6:35   34.1    53   10.7   166    13.9   999.00    690.3      0.0    -1426       0   999.0        0     0.0
 108    6:40   34.0    53   11.3   164    16.5   999.00    690.3      0.0    -1426       0   999.0        0     0.0
 108    6:45   34.6    52   11.8   164    14.6   999.00    690.4      0.0    -1426       0   999.0        0     0.0
 108    6:50   34.8    52   12.5   159    16.5   999.00    690.4      0.0    -1426       0   999.0        0     0.0
 108    6:55   34.7    52   11.0   157    15.9   999.00    690.4      0.0    -1426       0   999.0        0     0.0
 108    7:00   34.2    53   11.5   160    16.9   999.00    690.4      0.0    -1426       0   999.0        0     0.0
 108    7:05   35.2    51   11.8   160    18.4   999.00    690.4      0.0    -1426       0   999.0        0     0.0
 108    7:10   35.6    51   12.6   156    16.3   999.00    690.5      0.0    -1426       0   999.0        0     0.0
 108    7:15   36.2    50   12.4   155    15.4   999.00    690.5      0.0    -1426       0   999.0        0     0.0
 108    7:20   36.8    49   13.4   164    20.0   999.00    690.5      0.0    -1425       0   999.0        0     0.0
 108    7:25   36.7    49   12.7   159    16.5   999.00    690.5      0.0    -1425       0   999.0        0     0.0
 108    7:30   37.0    48   12.8   166    17.4   999.00    690.5      0.0    -1425       0   999.0        0     0.0
 108    7:35   37.3    47   12.4   168    17.2   999.00    690.5      0.0    -1425       0   999.0        0     0.0
 108    7:40   37.8    47   10.8   167    17.1   999.00    690.5      0.0    -1425       0   999.0        0     0.0
 108    7:45   38.3    46   10.1   167    15.6   999.00    690.5      0.0    -1425       0   999.0        0     0.0
 108    7:50   39.0    44   10.4   166    16.5   999.00    690.4      0.0    -1425       0   999.0        0     0.0
 108    7:55   39.0    44   14.2   170    20.2   999.00    690.4      0.0    -1425       0   999.0        0     0.0
 108    8:00   39.0    44   12.8   169    16.9   999.00    690.4      0.0    -1425       0   999.0        0     0.0
 108    8:05   39.2    44   14.5   173    19.3   999.00    690.4      0.0    -1425       0   999.0        0     0.0
 108    8:10   39.7    43   13.8   172    20.2   999.00    690.5      0.0    -1425       0   999.0        0     0.0
 108    8:15   40.2    43   13.0   169    17.8   999.00    690.5      0.0    -1424       0   999.0        0     0.0
 108    8:20   40.0    43   10.1   176    18.0   999.00    690.5      0.0    -1424       0   999.0        0     0.0
 108    8:25   39.6    43   15.6   191    25.8   999.00    690.5      0.0    -1424       0   999.0        0     0.0
 108    8:30   39.8    42   14.3   184    22.1   999.00    690.5      0.0    -1424       0   999.0        0     0.0
 108    8:35   39.9    42   14.2   181    20.2   999.00    690.5      0.0    -1424       0   999.0        0     0.0
 108    8:40   40.2    42   11.7   178    19.1   999.00    690.6      0.0    -1424       0   999.0        0     0.0
 108    8:45   40.3    43   12.4   176    21.9   999.00    690.5      0.0    -1424       0   999.0        0     0.0
 108    8:50   40.5    42   12.4   175    17.6   999.00    690.5      0.0    -1423       0   999.0        0     0.0
 108    8:55   40.6    42   13.0   180    21.5   999.00    690.6      0.0    -1423       0   999.0        0     0.0
 108    9:00   40.5    43   11.2   174    17.8   999.00    690.6      0.0    -1423       0   999.0        0     0.0
 108    9:05   40.5    42   16.7   185    24.9   999.00    690.6      0.0    -1423       0   999.0        0     0.0
 108    9:10   40.1    43   12.7   185    18.9   999.00    690.6      0.0    -1423       0   999.0        0     0.0
 108    9:15   40.4    43   12.1   184    19.1   999.00    690.6      0.0    -1423       0   999.0        0     0.0
 108    9:20   41.1    43    7.8   154    12.8   999.00    690.6      0.0    -1423       0   999.0        0     0.0
 108    9:25   40.7    42   13.7   180    25.1   999.00    690.7      0.0    -1422       0   999.0        0     0.0
 108    9:30   40.5    43   10.9   180    19.3   999.00    690.7      0.0    -1422       0   999.0        0     0.0
 108    9:35   40.6    42   12.7   197    18.9   999.00    690.7      0.0    -1422       0   999.0        0     0.0
 108    9:40   40.6    42   13.8   206    20.6   999.00    690.6      0.0    -1422       0   999.0        0     0.0
 108    9:45   40.5    42   14.6   200    27.7   999.00    690.7      0.0    -1422       0   999.0        0     0.0
 108    9:50   40.6    42   16.0   197    22.1   999.00    690.7      0.0    -1422       0   999.0        0     0.0
 108    9:55   40.6    41   14.6   201    21.9   999.00    690.7      0.0    -1422       0   999.0        0     0.0
 108   10:00   40.6    42   12.1   195    20.0   999.00    690.8      0.0    -1422       0   999.0        0     0.0
 108   10:05   40.9    41   13.6   196    25.1   999.00    690.8      0.0    -1422       0   999.0        0     0.0
 108   10:10   40.9    41   13.5   192    22.8   999.00    690.7      0.0    -1422       0   999.0        0     0.0
 108   10:15   40.8    42   11.7   199    21.1   999.00    690.7      0.0    -1422       0   999.0        0     0.0
 108   10:20   40.9    41   12.9   198    19.3   999.00    690.7      0.0    -1422       0   999.0        0     0.0
 108   10:25   40.8    41   13.8   196    19.7   999.00    690.7      0.0    -1421       0   999.0        0     0.0
 108   10:30   40.9    42   12.0   194    20.0   999.00    690.6      0.0    -1421       0   999.0        0     0.0
 108   10:35   41.1    42   12.2   196    18.9   999.00    690.6      0.0    -1421       0   999.0        0     0.0
 108   10:40   41.3    41   14.6   190    25.2   999.00    690.5      0.0    -1421       0   999.0        0     0.0
 108   10:45   41.4    41   11.8   200    20.4   999.00    690.6      0.0    -1421       0   999.0        0     0.0
 108   10:50   41.0    42   11.6   198    18.0   999.00    690.6      0.0    -1421       0   999.0        0     0.0
 108   10:55   41.3    42   13.8   196    23.4   999.00    690.5      0.0    -1421       0   999.0        0     0.0
 108   11:00   41.4    41   15.1   194    24.7   999.00    690.6      0.0    -1421       0   999.0        0     0.0
 108   11:05   41.3    41   14.0   200    21.9   999.00    690.6      0.0    -1421       0   999.0        0     0.0
 108   11:10   41.2    41   14.4   199    20.0   999.00    690.4      0.0    -1420       0   999.0        0     0.0
 108   11:15   41.6    41   14.1   199    23.4   999.00    690.4      0.0    -1420       0   999.0        0     0.0
 108   11:20   41.6    42   10.4   207    23.2   999.00    690.4      0.0    -1420       0   999.0        0     0.0
 108   11:25   41.5    42   11.1   200    17.4   999.00    690.4      0.0    -1420       0   999.0        0     0.0
 108   11:30   41.4    43   10.4   204    16.7   999.00    690.4      0.0    -1420       0   999.0        0     0.0
 108   11:35   41.5    41   10.3   206    15.9   999.00    690.4      0.0    -1419       0   999.0        0     0.0
 108   11:40   42.1    41    9.9   203    15.0   999.00    690.3      0.0    -1419       0   999.0        0     0.0
 108   11:45   42.4    41   11.4   206    16.9   999.00    690.3      0.0    -1419       0   999.0        0     0.0
 108   11:50   42.7    38   14.1   205    24.9   999.00    690.1      0.0    -1419       0   999.0        0     0.0
 108   11:55   43.0    38   16.7   218    25.1   999.00    690.1      0.0    -1418       0   999.0        0     0.0
 108   12:00   42.7    38   19.8   230    25.6   999.00    690.0      0.0    -1418       0   999.0        0     0.0
 108   12:05   43.0    38   15.7   222    23.0   999.00    690.0      0.0    -1418       0   999.0        0     0.0
 108   12:10   43.6    37   16.3   222    29.0   999.00    689.9      0.0    -1417       0   999.0        0     0.0
 108   12:15   44.0    36   19.0   227    27.3   999.00    689.8      0.0    -1416       0   999.0        0     0.0
 108   12:20   44.3    36   20.8   220    27.7   999.00    689.7      0.0    -1415       0   999.0        0     0.0
 108   12:25   44.5    34   19.2   216    29.9   999.00    689.7      0.0    -1416       0   999.0        0     0.0
 108   12:30   44.7    34   23.5   220    37.9   999.00    689.6      0.0    -1415       0   999.0        0     0.0
 108   12:35   44.9    33   23.1   216    29.2   999.00    689.6      0.0    -1415       0   999.0        0     0.0
 108   12:40   44.2    35   21.0   215    32.9   999.00    689.6      0.0    -1415       0   999.0        0     0.0
 108   12:45   44.5    34   19.3   215    28.0   999.00    689.7      0.0    -1416       0   999.0        0     0.0
 108   12:50   44.5    34   22.0   210    34.9   999.00    689.6      0.0    -1416       0   999.0        0     0.0
 108   12:55   45.1    32   21.5   210    32.5   999.00    689.6      0.0    -1416       0   999.0        0     0.0
 108   13:00   45.2    32   24.2   211    33.2   999.00    689.6      0.0    -1415       0   999.0        0     0.0
 108   13:05   44.9    33   19.9   206    32.5   999.00    689.6      0.0    -1414       0   999.0        0     0.0
 108   13:10   44.8    33   19.6   206    30.3   999.00    689.6      0.0    -1414       0   999.0        0     0.0
 108   13:15   45.0    32   20.1   206    31.0   999.00    689.5      0.0    -1414       0   999.0        0     0.0
 108   13:20   45.1    32   23.9   204    35.3   999.00    689.4      0.0    -1414       0   999.0        0     0.0
 108   13:25   45.0    32   22.6   208    30.8   999.00    689.4      0.0    -1414       0   999.0        0     0.0
 108   13:30   45.2    32   19.8   206    29.7   999.00    689.4      0.0    -1414       0   999.0        0     0.0
 108   13:35   45.5    32   22.5   206    36.2   999.00    689.2      0.0    -1413       0   999.0        0     0.0
 108   13:40   45.6    32   20.8   208    34.7   999.00    689.2      0.0    -1413       0   999.0        0     0.0
 108   13:45   45.9    31   18.4   206    29.0   999.00    689.2      0.0    -1413       0   999.0        0     0.0
 108   13:50   45.8    32   18.3   200    26.9   999.00    689.2      0.0    -1413       0   999.0        0     0.0
 108   13:55   46.3    32   15.8   196    26.0   999.00    689.2      0.0    -1413       0   999.0        0     0.0
 108   14:00   46.4    31   17.6   210    28.0   999.00    689.2      0.0    -1413       0   999.0        0     0.0

Return to DRI Storm Peak Lab. graphs page.


Western Regional Climate Center,wrcc@dri.edu